createdAt,value
2022-08-05T00:00:18.463Z,9.63
2022-08-05T00:02:51.541Z,10.00
2022-08-05T00:06:02.911Z,9.03
2022-08-05T00:08:34.998Z,10.83
2022-08-05T00:11:00.385Z,11.37
2022-08-05T00:13:38.140Z,12.43
2022-08-05T00:16:08.585Z,12.00
2022-08-05T00:18:37.981Z,10.57
2022-08-05T00:21:08.557Z,11.07
2022-08-05T00:23:45.746Z,11.00
2022-08-05T00:26:16.587Z,9.00
2022-08-05T00:28:45.740Z,8.83
2022-08-05T00:31:14.563Z,10.07
2022-08-05T00:34:53.177Z,9.67
2022-08-05T00:37:10.805Z,10.43
2022-08-05T00:39:20.613Z,8.27
2022-08-05T00:41:55.553Z,7.87
2022-08-05T00:44:30.766Z,8.30
2022-08-05T00:47:02.186Z,9.07
2022-08-05T00:49:38.881Z,9.60
2022-08-05T00:52:28.793Z,8.30
2022-08-05T00:54:57.319Z,9.50
2022-08-05T00:57:38.395Z,8.70
2022-08-05T01:00:16.891Z,9.37
2022-08-05T01:02:45.284Z,8.87
2022-08-05T01:05:14.239Z,8.70
2022-08-05T01:08:41.365Z,9.50
2022-08-05T01:10:37.990Z,10.20
2022-08-05T01:13:22.265Z,9.07
2022-08-05T01:15:58.097Z,10.13
2022-08-05T01:18:32.859Z,9.93
2022-08-05T01:21:12.351Z,9.13
2022-08-05T01:24:15.059Z,11.27
2022-08-05T01:26:57.970Z,9.00
2022-08-05T01:29:32.978Z,9.13
2022-08-05T01:32:12.551Z,9.33
2022-08-05T01:34:49.718Z,8.57
2022-08-05T01:37:25.136Z,8.33
2022-08-05T01:39:59.091Z,9.03
2022-08-05T01:42:30.384Z,9.20
2022-08-05T01:45:03.424Z,7.80
2022-08-05T01:47:38.831Z,8.90
2022-08-05T01:50:15.118Z,7.83
2022-08-05T01:52:49.643Z,8.60
2022-08-05T01:55:21.433Z,8.37
2022-08-05T01:58:11.650Z,9.40
2022-08-05T02:00:45.774Z,8.33
2022-08-05T02:03:29.165Z,8.77
2022-08-05T02:06:03.652Z,7.83
2022-08-05T02:08:58.382Z,8.53
2022-08-05T02:11:34.161Z,9.30
2022-08-05T02:14:08.109Z,9.50
2022-08-05T02:16:52.483Z,9.30
2022-08-05T02:19:34.274Z,9.67
2022-08-05T02:22:10.614Z,9.20
2022-08-05T02:25:00.202Z,10.13
2022-08-05T02:27:59.411Z,9.73
2022-08-05T02:30:19.256Z,8.73
2022-08-05T02:32:53.351Z,9.80
2022-08-05T02:35:28.027Z,9.27
2022-08-05T02:38:02.960Z,8.60
2022-08-05T02:40:32.634Z,9.80
2022-08-05T02:43:03.240Z,9.40
2022-08-05T02:45:52.951Z,10.40
2022-08-05T02:48:29.129Z,9.37
2022-08-05T02:51:01.086Z,8.83
2022-08-05T02:53:39.538Z,10.13
2022-08-05T02:56:11.224Z,9.20
2022-08-05T02:58:45.611Z,8.73
2022-08-05T03:01:24.479Z,9.97
2022-08-05T03:04:02.709Z,9.90
2022-08-05T03:06:54.726Z,10.03
2022-08-05T03:09:27.201Z,11.47
2022-08-05T03:12:06.981Z,12.33
2022-08-05T03:14:39.050Z,11.00
2022-08-05T03:17:14.404Z,9.37
2022-08-05T03:19:45.830Z,11.40
2022-08-05T03:22:19.074Z,11.23
2022-08-05T03:25:11.640Z,10.17
2022-08-05T03:28:00.069Z,10.40
2022-08-05T03:30:33.632Z,9.37
2022-08-05T03:33:03.979Z,10.97
2022-08-05T03:35:41.164Z,9.97
2022-08-05T03:38:12.370Z,10.60
2022-08-05T03:40:45.279Z,10.10
2022-08-05T03:44:09.502Z,10.93
2022-08-05T03:46:08.233Z,10.77
2022-08-05T03:48:36.958Z,10.57
2022-08-05T03:52:39.292Z,10.77
2022-08-05T03:55:00.074Z,12.37
2022-08-05T03:56:58.999Z,9.70
2022-08-05T03:59:47.252Z,9.70
2022-08-05T04:02:39.124Z,10.20
2022-08-05T04:05:14.433Z,9.57
2022-08-05T04:07:57.059Z,10.90
2022-08-05T04:10:30.852Z,10.07
2022-08-05T04:13:04.299Z,9.97
2022-08-05T04:15:36.266Z,9.60
2022-08-05T04:18:06.851Z,9.93
2022-08-05T04:20:36.156Z,10.20
2022-08-05T04:23:05.859Z,10.63
2022-08-05T04:26:00.324Z,9.77
2022-08-05T04:28:30.825Z,9.20
2022-08-05T04:31:01.675Z,9.27
2022-08-05T04:34:17.928Z,9.63
2022-08-05T04:36:50.266Z,9.43
2022-08-05T04:39:15.260Z,8.63
2022-08-05T04:41:43.451Z,10.20
2022-08-05T04:44:13.778Z,10.93
2022-08-05T04:46:41.926Z,10.13
2022-08-05T04:49:15.254Z,11.80
2022-08-05T04:51:44.312Z,10.53
2022-08-05T04:54:14.630Z,16.83
2022-08-05T04:56:44.324Z,12.77
2022-08-05T04:59:22.474Z,12.33
2022-08-05T05:02:35.211Z,14.07
2022-08-05T05:04:51.347Z,13.43
2022-08-05T05:07:23.971Z,13.70
2022-08-05T05:09:58.090Z,11.27
2022-08-05T05:12:27.894Z,12.90
2022-08-05T05:14:56.103Z,13.87
2022-08-05T05:17:55.587Z,13.10
2022-08-05T05:20:14.300Z,11.60
2022-08-05T05:22:43.964Z,11.53
2022-08-05T05:25:17.151Z,17.43
2022-08-05T05:27:48.582Z,13.80
2022-08-05T05:30:29.419Z,15.10
2022-08-05T05:33:13.923Z,14.63
2022-08-05T05:35:46.882Z,13.03
2022-08-05T05:38:22.775Z,13.73
2022-08-05T05:40:56.964Z,15.83
2022-08-05T05:43:54.454Z,16.40
2022-08-05T05:46:17.406Z,15.33
2022-08-05T05:48:48.890Z,13.47
2022-08-05T05:51:21.867Z,14.97
2022-08-05T05:53:58.367Z,13.70
2022-08-05T05:56:31.615Z,11.90
2022-08-05T05:59:04.059Z,14.60
2022-08-05T06:01:37.551Z,14.67
2022-08-05T06:04:11.828Z,13.60
2022-08-05T06:06:42.662Z,14.07
2022-08-05T06:09:17.554Z,14.17
2022-08-05T06:12:01.120Z,16.70
2022-08-05T06:14:31.965Z,13.50
2022-08-05T06:17:02.175Z,13.93
2022-08-05T06:19:56.678Z,13.77
2022-08-05T06:22:29.595Z,13.93
2022-08-05T06:24:57.989Z,13.90
2022-08-05T06:28:11.847Z,15.60
2022-08-05T06:30:19.972Z,13.77
2022-08-05T06:32:50.588Z,13.73
2022-08-05T06:36:03.856Z,14.10
2022-08-05T06:38:11.228Z,14.13
2022-08-05T06:40:42.152Z,14.30
2022-08-05T06:43:59.154Z,13.60
2022-08-05T06:46:07.025Z,15.57
2022-08-05T06:48:55.832Z,17.07
2022-08-05T06:51:30.120Z,17.70
2022-08-05T06:53:59.995Z,17.27
2022-08-05T06:56:28.336Z,17.27
2022-08-05T06:58:56.768Z,21.77
2022-08-05T07:01:27.774Z,18.50
2022-08-05T07:04:01.409Z,15.83
2022-08-05T07:06:31.916Z,18.47
2022-08-05T07:09:04.089Z,16.50
2022-08-05T07:11:36.766Z,16.40
2022-08-05T07:14:36.810Z,15.27
2022-08-05T07:17:59.793Z,16.90
2022-08-05T07:22:45.702Z,18.07
2022-08-05T07:25:55.576Z,17.70
2022-08-05T07:28:09.592Z,14.67
2022-08-05T07:30:40.486Z,15.53
2022-08-05T07:33:16.028Z,16.10
2022-08-05T07:36:01.814Z,16.57
2022-08-05T07:38:42.913Z,14.27
2022-08-05T07:41:35.216Z,14.17
2022-08-05T07:44:05.468Z,12.87
2022-08-05T07:46:34.506Z,14.33
2022-08-05T07:49:06.284Z,17.20
2022-08-05T07:51:48.555Z,12.07
2022-08-05T07:54:30.237Z,13.60
2022-08-05T07:57:23.694Z,11.53
2022-08-05T07:59:48.951Z,15.07
2022-08-05T08:02:18.101Z,11.40
2022-08-05T08:04:49.668Z,12.67
2022-08-05T08:07:22.167Z,12.27
2022-08-05T08:09:52.087Z,13.57
2022-08-05T08:12:37.548Z,12.80
2022-08-05T08:15:15.455Z,12.87
2022-08-05T08:17:46.064Z,13.53
2022-08-05T08:20:43.531Z,10.80
2022-08-05T08:23:11.507Z,14.13
2022-08-05T08:25:59.928Z,14.33
2022-08-05T08:28:36.334Z,11.40
2022-08-05T08:31:06.301Z,11.40
2022-08-05T08:33:38.154Z,13.97
2022-08-05T08:38:57.677Z,11.03
2022-08-05T08:41:52.183Z,11.37
2022-08-05T08:45:20.237Z,12.13
2022-08-05T08:47:47.048Z,10.80
2022-08-05T08:50:13.032Z,11.87
2022-08-05T08:52:53.900Z,10.77
2022-08-05T08:56:02.163Z,10.60
2022-08-05T08:58:13.010Z,9.70
2022-08-05T09:00:42.978Z,9.30
2022-08-05T09:03:16.326Z,10.63
2022-08-05T09:06:07.624Z,7.53
2022-08-05T09:08:40.264Z,7.83
2022-08-05T09:11:13.670Z,5.43
2022-08-05T09:14:00.671Z,5.90
2022-08-05T09:16:32.183Z,6.17
2022-08-05T09:19:00.475Z,6.10
2022-08-05T09:22:22.029Z,5.80
2022-08-05T09:24:19.191Z,6.57
2022-08-05T09:26:53.717Z,5.30
2022-08-05T09:29:30.783Z,5.57
2022-08-05T09:32:40.378Z,6.30
2022-08-05T09:34:53.089Z,5.67
2022-08-05T09:38:12.124Z,6.40
2022-08-05T09:40:30.889Z,5.80
2022-08-05T09:43:01.155Z,5.47
2022-08-05T09:46:06.497Z,6.70
2022-08-05T09:48:30.738Z,6.33
2022-08-05T09:51:02.704Z,5.47
2022-08-05T09:53:53.510Z,6.77
2022-08-05T09:56:27.746Z,6.23
2022-08-05T09:59:04.206Z,6.10
2022-08-05T10:01:35.150Z,6.37
2022-08-05T10:04:10.429Z,6.70
2022-08-05T10:06:41.515Z,6.37
2022-08-05T10:09:27.650Z,7.37
2022-08-05T10:12:31.702Z,7.27
2022-08-05T10:15:16.192Z,6.50
2022-08-05T10:17:54.624Z,6.33
2022-08-05T10:20:26.694Z,6.50
2022-08-05T10:22:56.344Z,6.47
2022-08-05T10:25:27.585Z,5.90
2022-08-05T10:28:16.706Z,19.23
2022-08-05T10:32:49.379Z,6.57
2022-08-05T10:33:36.282Z,7.87
2022-08-05T10:36:05.996Z,7.00
2022-08-05T10:38:36.362Z,7.87
2022-08-05T10:41:13.288Z,6.27
2022-08-05T10:43:52.280Z,6.73
2022-08-05T10:46:23.725Z,6.90
2022-08-05T10:49:01.470Z,6.87
2022-08-05T10:51:57.655Z,6.60
2022-08-05T10:54:56.697Z,7.33
2022-08-05T10:57:32.312Z,6.93
2022-08-05T11:00:18.506Z,7.40
2022-08-05T11:03:24.776Z,6.57
2022-08-05T11:06:15.007Z,6.93
2022-08-05T11:09:13.165Z,6.43
2022-08-05T11:11:52.691Z,6.30
2022-08-05T11:17:58.238Z,6.73
2022-08-05T11:20:39.231Z,7.70
2022-08-05T11:24:04.589Z,6.70
2022-08-05T11:26:32.220Z,6.17
2022-08-05T11:29:12.245Z,6.70
2022-08-05T11:31:56.417Z,6.20
2022-08-05T11:34:52.187Z,6.53
2022-08-05T11:38:30.135Z,6.30
2022-08-05T11:41:03.618Z,6.30
2022-08-05T11:44:05.192Z,6.20
2022-08-05T11:46:37.512Z,6.73
2022-08-05T11:49:10.116Z,7.00
2022-08-05T11:51:44.015Z,7.30
2022-08-05T11:54:32.700Z,7.40
2022-08-05T11:57:08.550Z,7.23
2022-08-05T11:59:51.765Z,7.10
2022-08-05T12:02:31.287Z,8.00
2022-08-05T12:05:07.010Z,7.67
2022-08-05T12:08:07.463Z,7.63
2022-08-05T12:10:39.005Z,7.27
2022-08-05T12:13:27.736Z,7.27
2022-08-05T12:16:15.425Z,7.43
2022-08-05T12:18:49.524Z,6.40
2022-08-05T12:21:29.877Z,6.50
2022-08-05T12:24:07.230Z,6.73
2022-08-05T12:26:36.813Z,6.90
2022-08-05T12:29:09.445Z,6.60
2022-08-05T12:31:49.837Z,6.90
2022-08-05T12:34:24.033Z,6.77
2022-08-05T12:36:55.759Z,6.80
2022-08-05T12:39:34.243Z,7.70
2022-08-05T12:42:14.919Z,6.77
2022-08-05T12:44:44.733Z,7.73
2022-08-05T12:47:17.052Z,6.23
2022-08-05T12:50:02.176Z,7.17
2022-08-05T12:52:38.516Z,7.27
2022-08-05T12:55:23.834Z,7.60
2022-08-05T12:58:52.741Z,7.10
2022-08-05T13:02:02.596Z,7.37
2022-08-05T13:03:39.026Z,6.80
2022-08-05T13:06:15.982Z,6.87
2022-08-05T13:08:50.767Z,6.97
2022-08-05T13:11:59.882Z,6.20
2022-08-05T13:14:24.732Z,6.60
2022-08-05T13:17:08.953Z,6.03
2022-08-05T13:19:50.975Z,6.03
2022-08-05T13:22:27.970Z,6.40
2022-08-05T13:25:00.903Z,6.60
2022-08-05T13:27:39.278Z,5.63
2022-08-05T13:30:34.079Z,6.37
2022-08-05T13:33:01.202Z,7.00
2022-08-05T13:35:43.085Z,5.97
2022-08-05T13:38:28.249Z,6.80
2022-08-05T13:41:02.735Z,6.23
2022-08-05T13:43:44.650Z,6.10
2022-08-05T13:46:51.042Z,6.17
2022-08-05T13:49:10.366Z,7.07
2022-08-05T13:51:41.417Z,7.03
2022-08-05T13:54:12.247Z,6.83
2022-08-05T13:56:50.438Z,6.10
2022-08-05T13:59:25.018Z,7.63
2022-08-05T14:01:57.911Z,6.30
2022-08-05T14:04:49.574Z,6.83
2022-08-05T14:07:26.257Z,6.23
2022-08-05T14:10:09.239Z,6.53
2022-08-05T14:12:37.531Z,6.67
2022-08-05T14:16:08.237Z,5.80
2022-08-05T14:17:59.818Z,5.80
2022-08-05T14:20:29.732Z,5.57
2022-08-05T14:22:58.363Z,6.10
2022-08-05T14:25:28.226Z,6.70
2022-08-05T14:27:58.420Z,5.40
2022-08-05T14:30:28.444Z,6.63
2022-08-05T14:32:58.814Z,5.30
2022-08-05T14:35:50.525Z,6.13
2022-08-05T14:38:32.739Z,5.97
2022-08-05T14:41:05.984Z,5.50
2022-08-05T14:43:59.481Z,5.10
2022-08-05T14:46:29.526Z,5.70
2022-08-05T14:49:06.532Z,6.00
2022-08-05T14:51:36.367Z,6.20
2022-08-05T14:54:26.306Z,5.97
2022-08-05T14:56:54.753Z,9.67
2022-08-05T14:59:23.534Z,6.80
2022-08-05T15:01:53.749Z,6.70
2022-08-05T15:04:22.736Z,7.07
2022-08-05T15:06:51.678Z,6.37
2022-08-05T15:09:51.410Z,6.50
2022-08-05T15:12:11.615Z,6.80
2022-08-05T15:14:49.967Z,6.57
2022-08-05T15:17:47.412Z,6.57
2022-08-05T15:20:18.630Z,6.77
2022-08-05T15:22:52.257Z,6.57
2022-08-05T15:25:41.394Z,7.07
2022-08-05T15:28:14.583Z,6.70
2022-08-05T15:30:43.815Z,6.50
2022-08-05T15:33:21.924Z,6.93
2022-08-05T15:36:04.733Z,6.30
2022-08-05T15:38:40.779Z,7.00
2022-08-05T15:41:20.892Z,6.07
2022-08-05T15:43:52.170Z,6.60
2022-08-05T15:46:24.350Z,7.10
2022-08-05T15:49:01.169Z,6.60
2022-08-05T15:52:13.397Z,6.47
2022-08-05T15:54:34.377Z,6.90
2022-08-05T15:57:03.627Z,6.90
2022-08-05T15:59:36.614Z,6.10
2022-08-05T16:02:09.551Z,6.37
2022-08-05T16:04:45.693Z,6.30
2022-08-05T16:07:14.234Z,6.30
2022-08-05T16:09:43.690Z,6.03
2022-08-05T16:12:12.144Z,6.93
2022-08-05T16:14:40.519Z,6.27
2022-08-05T16:17:09.360Z,7.03
2022-08-05T16:20:05.190Z,7.13
2022-08-05T16:22:34.350Z,6.97
2022-08-05T16:25:09.345Z,7.90
2022-08-05T16:27:59.626Z,7.50
2022-08-05T16:30:29.043Z,6.80
2022-08-05T16:32:58.667Z,6.90
2022-08-05T16:35:28.293Z,7.87
2022-08-05T16:38:18.623Z,8.30
2022-08-05T16:40:55.474Z,8.17
2022-08-05T16:43:31.189Z,8.90
2022-08-05T16:46:04.754Z,8.10
2022-08-05T16:48:37.584Z,8.50
2022-08-05T16:51:10.068Z,7.13
2022-08-05T16:54:03.991Z,7.57
2022-08-05T16:56:30.245Z,7.63
2022-08-05T16:59:00.338Z,7.37
2022-08-05T17:01:53.243Z,8.60
2022-08-05T17:04:18.791Z,7.70
2022-08-05T17:06:53.291Z,14.53
2022-08-05T17:09:23.401Z,8.00
2022-08-05T17:11:56.036Z,7.60
2022-08-05T17:14:36.796Z,7.77
2022-08-05T17:17:14.379Z,7.50
2022-08-05T17:19:45.574Z,10.23
2022-08-05T17:22:24.819Z,9.10
2022-08-05T17:24:58.702Z,7.90
2022-08-05T17:27:33.687Z,7.53
2022-08-05T17:30:03.040Z,8.50
2022-08-05T17:32:32.230Z,10.00
2022-08-05T17:35:04.029Z,8.60
2022-08-05T17:37:41.752Z,8.53
2022-08-05T17:40:17.337Z,8.40
2022-08-05T17:42:51.823Z,9.90
2022-08-05T17:45:22.625Z,7.57
2022-08-05T17:47:55.056Z,7.90
2022-08-05T17:50:29.434Z,8.80
2022-08-05T17:53:00.292Z,9.10
2022-08-05T17:55:37.257Z,8.37
2022-08-05T17:58:12.573Z,8.30
2022-08-05T18:00:45.058Z,9.20
2022-08-05T18:03:48.408Z,9.00
2022-08-05T18:06:11.715Z,9.93
2022-08-05T18:08:44.813Z,9.90
2022-08-05T18:11:24.669Z,10.17
2022-08-05T18:14:04.339Z,8.87
2022-08-05T18:16:43.775Z,9.20
2022-08-05T18:19:22.924Z,10.73
2022-08-05T18:22:07.356Z,9.27
2022-08-05T18:24:38.071Z,11.23
2022-08-05T18:27:12.889Z,9.87
2022-08-05T18:29:51.974Z,9.10
2022-08-05T18:32:28.250Z,8.87
2022-08-05T18:34:57.827Z,8.40
2022-08-05T18:37:34.007Z,10.53
2022-08-05T18:40:34.426Z,9.33
2022-08-05T18:42:59.484Z,8.27
2022-08-05T18:45:41.552Z,9.90
2022-08-05T18:48:11.293Z,9.37
2022-08-05T18:52:03.016Z,12.30
2022-08-05T18:53:56.723Z,9.80
2022-08-05T18:56:25.526Z,9.23
2022-08-05T18:59:01.179Z,10.90
2022-08-05T19:01:33.419Z,12.33
2022-08-05T19:04:24.062Z,10.67
2022-08-05T19:06:53.823Z,10.50
2022-08-05T19:09:22.822Z,11.57
2022-08-05T19:11:59.453Z,10.93
2022-08-05T19:14:44.536Z,10.70
2022-08-05T19:17:20.331Z,11.33
2022-08-05T19:19:50.317Z,10.90
2022-08-05T19:22:18.942Z,13.40
2022-08-05T19:24:54.334Z,10.67
2022-08-05T19:27:30.459Z,11.00
2022-08-05T19:30:02.824Z,12.53
2022-08-05T19:32:31.262Z,12.23
2022-08-05T19:34:59.404Z,13.80
2022-08-05T19:38:04.276Z,15.97
2022-08-05T19:40:24.146Z,14.40
2022-08-05T19:43:00.748Z,13.17
2022-08-05T19:45:36.926Z,15.10
2022-08-05T19:48:06.905Z,15.17
2022-08-05T19:50:42.916Z,15.13
2022-08-05T19:53:11.580Z,12.93
2022-08-05T19:56:14.843Z,14.17
2022-08-05T19:58:30.102Z,13.67
2022-08-05T20:00:59.921Z,14.73
2022-08-05T20:03:40.654Z,13.33
2022-08-05T20:06:15.273Z,17.90
2022-08-05T20:08:47.451Z,18.87
2022-08-05T20:11:17.981Z,19.87
2022-08-05T20:13:58.366Z,16.87
2022-08-05T20:16:37.829Z,17.97
2022-08-05T20:19:06.118Z,17.83
2022-08-05T20:21:34.997Z,17.67
2022-08-05T20:24:07.278Z,18.70
2022-08-05T20:26:39.794Z,17.57
2022-08-05T20:29:27.470Z,19.57
2022-08-05T20:31:58.336Z,19.27
2022-08-05T20:34:28.192Z,18.20
2022-08-05T20:36:56.291Z,18.33
2022-08-05T20:39:24.516Z,18.93
2022-08-05T20:42:04.615Z,18.17
2022-08-05T20:44:34.620Z,17.20
2022-08-05T20:47:08.347Z,16.47
2022-08-05T20:49:39.948Z,15.27
2022-08-05T20:52:10.767Z,15.97
2022-08-05T20:54:42.805Z,15.60
2022-08-05T20:57:43.023Z,15.77
2022-08-05T21:00:41.411Z,15.20
2022-08-05T21:03:08.012Z,15.23
2022-08-05T21:05:53.925Z,14.33
2022-08-05T21:08:26.579Z,14.33
2022-08-05T21:10:58.354Z,15.27
2022-08-05T21:13:47.489Z,13.27
2022-08-05T21:16:20.591Z,16.17
2022-08-05T21:18:52.677Z,17.67
2022-08-05T21:21:24.339Z,15.03
2022-08-05T21:23:52.781Z,16.73
2022-08-05T21:26:21.194Z,15.93
2022-08-05T21:28:54.601Z,17.77
2022-08-05T21:31:41.501Z,14.13
2022-08-05T21:34:11.468Z,13.27
2022-08-05T21:36:42.351Z,14.43
2022-08-05T21:39:16.925Z,13.90
2022-08-05T21:42:01.705Z,12.33
2022-08-05T21:44:31.008Z,15.40
2022-08-05T21:47:00.357Z,11.53
2022-08-05T21:49:48.023Z,17.23
2022-08-05T21:52:26.951Z,12.50
2022-08-05T21:54:57.174Z,13.03
2022-08-05T21:57:31.450Z,11.80
2022-08-05T22:00:06.059Z,12.77
2022-08-05T22:02:41.814Z,17.53
2022-08-05T22:05:12.934Z,13.40
2022-08-05T22:07:58.735Z,11.60
2022-08-05T22:10:28.170Z,13.80
2022-08-05T22:12:58.850Z,14.90
2022-08-05T22:16:02.431Z,12.00
2022-08-05T22:18:25.897Z,12.93
2022-08-05T22:20:55.799Z,12.60
2022-08-05T22:24:02.625Z,13.50
2022-08-05T22:26:50.516Z,12.20
2022-08-05T22:29:26.511Z,12.43
2022-08-05T22:31:59.742Z,13.67
2022-08-05T22:34:31.291Z,12.27
2022-08-05T22:37:03.965Z,13.00
2022-08-05T22:39:34.518Z,13.63
2022-08-05T22:42:10.827Z,12.43
2022-08-05T22:44:42.484Z,13.13
2022-08-05T22:47:29.406Z,15.50
2022-08-05T22:50:20.556Z,11.67
2022-08-05T22:52:49.816Z,11.30
2022-08-05T22:55:26.250Z,11.40
2022-08-05T22:57:55.235Z,12.13
2022-08-05T23:00:24.565Z,12.40
2022-08-05T23:02:55.126Z,10.77
2022-08-05T23:05:24.680Z,12.03
2022-08-05T23:07:54.322Z,11.90
2022-08-05T23:10:24.354Z,11.93
2022-08-05T23:12:54.406Z,11.70
2022-08-05T23:15:29.109Z,11.13
2022-08-05T23:18:00.970Z,10.57
2022-08-05T23:20:32.415Z,14.00
2022-08-05T23:23:03.517Z,12.00
2022-08-05T23:25:51.590Z,11.10
2022-08-05T23:28:24.049Z,12.23
2022-08-05T23:31:15.971Z,11.23
2022-08-05T23:34:03.736Z,11.00
2022-08-05T23:36:40.254Z,11.30
2022-08-05T23:39:17.233Z,11.67
2022-08-05T23:41:52.140Z,10.87
2022-08-05T23:44:22.682Z,12.73
2022-08-05T23:46:53.418Z,12.47
2022-08-05T23:49:35.754Z,12.93
2022-08-05T23:52:25.358Z,12.63
2022-08-05T23:54:56.124Z,11.33
2022-08-05T23:57:24.743Z,12.30
